Time;durP1;ratioP1;P1;durP2;ratioP2;P2;SDS_P1;SDS_P2;PMS_P1;PMS_P2;Temp;Humidity;BMP_temperature;BMP_pressure;BME280_temperature;BME280_humidity;BME280_pressure;Samples;Min_cycle;Max_cycle;Signal;HPM_P1;HPM_P2
2024/02/05 00:01:00;;;;;;;2.00;1.42;;;18.90;41.50;;;;;;8427841;28;20032;-53
2024/02/05 00:05:01;;;;;;;2.17;1.52;;;18.90;41.30;;;;;;8427671;28;20040;-51
2024/02/05 00:09:05;;;;;;;2.05;1.50;;;18.90;41.10;;;;;;8427466;28;20077;-53
2024/02/05 00:13:05;;;;;;;1.55;1.30;;;19.00;41.00;;;;;;8427201;28;20519;-52
2024/02/05 00:17:06;;;;;;;3.05;1.50;;;19.00;40.90;;;;;;8427434;28;20032;-52
2024/02/05 00:21:07;;;;;;;3.17;1.60;;;19.00;40.80;;;;;;8426993;28;20032;-52
2024/02/05 00:25:08;;;;;;;1.58;1.30;;;19.00;40.80;;;;;;8427171;28;20028;-52
2024/02/05 00:29:09;;;;;;;1.55;1.10;;;18.90;42.10;;;;;;8408783;28;20153;-51
2024/02/05 00:33:09;;;;;;;2.67;1.42;;;18.70;42.30;;;;;;8408698;28;20123;-52
2024/02/05 00:37:10;;;;;;;2.88;1.63;;;18.80;41.90;;;;;;8426894;28;20032;-53
2024/02/05 00:41:11;;;;;;;2.55;1.27;;;18.80;41.60;;;;;;8426605;28;20103;-52
2024/02/05 00:45:11;;;;;;;2.53;1.38;;;18.80;41.30;;;;;;8426564;28;20039;-52
2024/02/05 00:49:12;;;;;;;1.52;1.30;;;18.80;41.10;;;;;;8408459;28;20036;-53
2024/02/05 00:53:13;;;;;;;2.03;1.30;;;18.90;41.00;;;;;;8426244;28;20474;-51
2024/02/05 00:57:14;;;;;;;1.73;1.20;;;18.90;40.80;;;;;;8426365;28;20393;-52
2024/02/05 01:01:15;;;;;;;1.10;0.98;;;18.90;40.70;;;;;;8426368;28;20039;-51
2024/02/05 01:05:17;;;;;;;1.55;1.20;;;18.90;40.60;;;;;;8427385;28;20482;-51
2024/02/05 01:09:17;;;;;;;1.98;1.77;;;18.90;40.50;;;;;;8433030;28;20220;-53
2024/02/05 01:13:19;;;;;;;1.70;1.20;;;18.90;40.70;;;;;;8433021;28;20081;-53
2024/02/05 01:17:20;;;;;;;1.38;1.23;;;18.80;41.80;;;;;;8432701;28;20036;-52
2024/02/05 01:21:21;;;;;;;2.58;1.42;;;18.70;42.10;;;;;;8432767;28;20118;-52
2024/02/05 01:25:21;;;;;;;1.30;1.10;;;18.70;41.70;;;;;;8432783;28;20398;-54
2024/02/05 01:29:22;;;;;;;1.20;1.10;;;18.80;41.30;;;;;;8433250;28;20028;-53
2024/02/05 01:33:23;;;;;;;2.67;1.40;;;18.80;41.10;;;;;;8432603;28;20028;-53
2024/02/05 01:37:23;;;;;;;0.98;0.95;;;18.80;40.90;;;;;;8432370;28;20032;-53
2024/02/05 01:41:24;;;;;;;2.03;1.38;;;18.80;40.80;;;;;;8431856;28;20104;-54
2024/02/05 01:45:25;;;;;;;3.80;1.30;;;18.80;40.70;;;;;;8432537;28;20090;-53
2024/02/05 01:49:25;;;;;;;1.40;1.05;;;18.80;40.60;;;;;;8432131;28;20032;-53
2024/02/05 01:53:27;;;;;;;1.30;1.20;;;18.90;40.50;;;;;;8431700;28;20707;-53
2024/02/05 01:57:27;;;;;;;1.30;1.10;;;18.90;40.40;;;;;;8413684;28;20055;-53
2024/02/05 02:01:29;;;;;;;1.52;1.02;;;18.80;40.80;;;;;;8431362;28;20065;-52
2024/02/05 02:05:29;;;;;;;;;;;18.70;41.80;;;;;;8431702;28;20024;-53
2024/02/05 02:09:30;;;;;;;1.73;1.20;;;18.60;42.00;;;;;;8431232;28;19922;-52
2024/02/05 02:13:32;;;;;;;1.35;1.20;;;18.60;41.50;;;;;;8430824;28;20048;-54
2024/02/05 02:17:36;;;;;;;1.10;1.00;;;18.70;41.20;;;;;;8430538;28;20028;-54
2024/02/05 02:21:39;;;;;;;1.95;1.15;;;18.70;41.00;;;;;;8430596;28;20039;-53
2024/02/05 02:25:40;;;;;;;1.63;1.30;;;18.80;40.80;;;;;;8430608;28;20074;-51
2024/02/05 02:29:42;;;;;;;1.40;1.00;;;18.80;40.70;;;;;;8430492;28;20032;-52
2024/02/05 02:34:18;;;;;;;2.08;1.10;;;18.80;40.50;;;;;;8430371;28;20042;-54
2024/02/05 02:38:28;;;;;;;1.17;0.85;;;18.80;40.40;;;;;;8426132;28;20460;-50
2024/02/05 02:42:31;;;;;;;1.38;0.90;;;18.80;40.30;;;;;;8429808;28;20038;-53
2024/02/05 02:46:31;;;;;;;1.58;1.00;;;18.80;40.20;;;;;;8429915;28;20496;-53
2024/02/05 02:50:32;;;;;;;1.23;1.00;;;18.80;41.00;;;;;;8430099;28;20370;-52
2024/02/05 02:54:33;;;;;;;2.73;1.20;;;18.60;41.70;;;;;;8411901;28;20036;-53
2024/02/05 02:58:33;;;;;;;1.50;0.95;;;18.60;41.60;;;;;;8429468;28;20282;-51
2024/02/05 03:02:34;;;;;;;1.20;1.00;;;18.70;41.20;;;;;;8429540;28;20474;-53
2024/02/05 03:06:35;;;;;;;1.25;0.98;;;18.70;40.90;;;;;;8429494;28;20032;-51
2024/02/05 03:10:36;;;;;;;1.10;1.00;;;18.70;40.70;;;;;;8429359;28;20720;-53
2024/02/05 03:14:36;;;;;;;2.55;1.10;;;18.80;40.50;;;;;;8429107;28;20443;-53
2024/02/05 03:18:37;;;;;;;2.25;1.13;;;18.80;40.40;;;;;;8428719;28;20047;-52
2024/02/05 03:22:38;;;;;;;2.35;0.85;;;18.80;40.30;;;;;;8428751;28;20044;-53
2024/02/05 03:26:39;;;;;;;2.60;0.90;;;18.80;40.20;;;;;;8428584;28;20074;-52
2024/02/05 03:30:41;;;;;;;1.35;1.00;;;18.80;40.10;;;;;;8427512;28;20032;-52
2024/02/05 03:34:41;;;;;;;1.50;0.90;;;18.80;40.00;;;;;;8428539;28;20036;-53
2024/02/05 03:38:42;;;;;;;1.02;0.90;;;18.80;41.00;;;;;;8428300;28;20032;-54
2024/02/05 03:42:43;;;;;;;1.03;0.90;;;18.60;41.70;;;;;;8428905;28;20488;-52
2024/02/05 03:46:44;;;;;;;1.88;1.30;;;18.60;41.40;;;;;;8428153;28;20282;-51
2024/02/05 03:50:44;;;;;;;0.90;0.90;;;18.60;41.10;;;;;;8427910;28;20190;-54
2024/02/05 03:54:46;;;;;;;0.98;0.98;;;18.70;40.80;;;;;;8428329;28;20116;-51
2024/02/05 03:58:50;;;;;;;1.17;1.00;;;18.70;40.60;;;;;;8427545;28;20016;-53
2024/02/05 04:02:51;;;;;;;0.90;0.90;;;18.70;40.40;;;;;;8427690;28;20035;-53
2024/02/05 04:06:51;;;;;;;0.73;0.70;;;18.70;40.30;;;;;;8427611;28;20036;-52
2024/02/05 04:10:52;;;;;;;0.93;0.82;;;18.70;40.20;;;;;;8427259;28;20105;-51
2024/02/05 04:14:53;;;;;;;1.10;1.00;;;18.80;40.20;;;;;;8427258;28;20392;-52
2024/02/05 04:18:53;;;;;;;1.37;0.97;;;18.80;40.00;;;;;;8427192;28;20035;-50
2024/02/05 04:22:54;;;;;;;1.15;0.90;;;18.80;40.00;;;;;;8426966;28;20282;-52
2024/02/05 04:26:55;;;;;;;1.00;0.90;;;18.70;41.00;;;;;;8427522;28;20028;-51
2024/02/05 04:30:55;;;;;;;1.08;1.00;;;18.60;41.60;;;;;;8426792;28;20603;-53
2024/02/05 04:34:56;;;;;;;1.27;0.98;;;18.60;41.30;;;;;;8426724;28;20032;-53
2024/02/05 04:38:57;;;;;;;0.80;0.80;;;18.60;40.90;;;;;;8427665;28;20063;-52
2024/02/05 04:42:58;;;;;;;1.23;1.00;;;18.60;40.70;;;;;;8426219;28;20038;-54
2024/02/05 04:46:58;;;;;;;1.83;1.10;;;18.70;40.50;;;;;;8426427;28;20071;-51
2024/02/05 04:50:59;;;;;;;1.10;1.00;;;18.70;40.30;;;;;;8426440;28;20289;-52
2024/02/05 04:55:00;;;;;;;0.95;0.95;;;18.70;40.20;;;;;;8426409;28;20323;-52
2024/02/05 04:59:01;;;;;;;0.75;0.75;;;18.80;40.10;;;;;;8426211;28;20081;-53
2024/02/05 05:03:01;;;;;;;0.93;0.82;;;18.70;39.90;;;;;;8408038;28;20090;-53
2024/02/05 05:07:02;;;;;;;1.10;0.80;;;18.80;39.90;;;;;;8425863;28;20032;-53
2024/02/05 05:11:03;;;;;;;0.80;0.70;;;18.80;39.80;;;;;;8426126;28;20048;-53
2024/02/05 05:15:04;;;;;;;0.80;0.80;;;18.60;40.90;;;;;;8425958;28;20449;-51
2024/02/05 05:19:05;;;;;;;0.70;0.70;;;18.60;41.50;;;;;;8426049;28;20040;-53
2024/02/05 05:23:06;;;;;;;1.08;0.98;;;18.60;41.10;;;;;;8425939;28;20032;-52
2024/02/05 05:27:06;;;;;;;0.80;0.80;;;18.60;40.60;;;;;;8425718;28;20481;-51
2024/02/05 05:31:07;;;;;;;1.02;0.85;;;18.80;40.30;;;;;;8407577;28;20029;-51
2024/02/05 05:35:08;;;;;;;1.02;0.85;;;18.80;40.00;;;;;;8426466;28;20381;-54
2024/02/05 05:39:09;;;;;;;1.10;0.80;;;18.80;39.80;;;;;;8425531;28;20470;-53
2024/02/05 05:43:10;;;;;;;0.70;0.70;;;18.90;39.70;;;;;;8425830;28;20115;-53
2024/02/05 05:47:11;;;;;;;0.93;0.77;;;18.90;39.60;;;;;;8425783;28;20028;-52
2024/02/05 05:51:13;;;;;;;0.80;0.80;;;18.90;39.50;;;;;;8407587;28;20051;-52
2024/02/05 05:55:14;;;;;;;0.90;0.90;;;18.90;39.40;;;;;;8431795;28;20107;-51
2024/02/05 05:59:15;;;;;;;1.15;0.88;;;18.90;39.40;;;;;;8431395;28;20028;-53
2024/02/05 06:03:15;;;;;;;1.02;0.90;;;18.80;40.70;;;;;;8431388;28;20028;-52
2024/02/05 06:07:16;;;;;;;0.85;0.70;;;18.60;41.10;;;;;;8413422;28;20036;-53
2024/02/05 06:11:17;;;;;;;1.23;0.90;;;18.60;40.80;;;;;;8430979;28;20501;-53
2024/02/05 06:15:17;;;;;;;0.68;0.65;;;18.70;40.40;;;;;;8431226;28;20054;-53
2024/02/05 06:19:18;;;;;;;0.73;0.73;;;18.80;40.10;;;;;;8412941;28;20385;-54
2024/02/05 06:23:19;;;;;;;0.93;0.73;;;18.80;39.80;;;;;;8430790;28;20078;-51
2024/02/05 06:27:22;;;;;;;0.73;0.70;;;18.90;39.70;;;;;;8430686;28;20290;-52
2024/02/05 06:31:22;;;;;;;1.17;0.70;;;18.90;39.60;;;;;;8430529;28;20085;-53
2024/02/05 06:35:23;;;;;;;0.82;0.82;;;18.90;39.50;;;;;;8430611;28;20028;-51
2024/02/05 06:39:24;;;;;;;0.80;0.70;;;18.90;39.30;;;;;;8430441;28;20044;-52
2024/02/05 06:43:24;;;;;;;0.93;0.85;;;18.90;39.20;;;;;;8430189;28;20032;-53
2024/02/05 06:47:26;;;;;;;0.80;0.80;;;19.00;39.30;;;;;;8430270;28;20036;-54
2024/02/05 06:51:26;;;;;;;;;;;18.80;40.40;;;;;;8430384;28;20286;-53
2024/02/05 06:55:27;;;;;;;1.03;0.77;;;18.80;40.80;;;;;;8429972;28;19957;-54
2024/02/05 06:59:28;;;;;;;0.63;0.63;;;18.80;40.40;;;;;;8429840;28;20032;-54
2024/02/05 07:03:28;;;;;;;0.85;0.75;;;18.80;40.10;;;;;;8429577;28;20044;-52
2024/02/05 07:07:29;;;;;;;0.80;0.70;;;18.90;39.80;;;;;;8430402;28;20021;-53
2024/02/05 07:11:30;;;;;;;1.98;0.88;;;18.90;39.60;;;;;;8429244;28;20059;-54
2024/02/05 07:15:34;;;;;;;0.90;0.70;;;18.90;39.50;;;;;;8429718;28;20021;-54
2024/02/05 07:19:35;;;;;;;0.73;0.60;;;18.90;39.30;;;;;;8429310;28;20024;-55
2024/02/05 07:23:36;;;;;;;1.33;0.80;;;19.00;39.30;;;;;;8428805;28;20484;-55
2024/02/05 07:27:37;;;;;;;0.75;0.70;;;19.00;39.20;;;;;;8428992;28;20393;-56
2024/02/05 07:31:38;;;;;;;0.68;0.68;;;19.00;39.10;;;;;;8428618;28;20201;-54
2024/02/05 07:35:38;;;;;;;0.52;0.50;;;19.00;39.20;;;;;;8428646;28;20029;-55
2024/02/05 07:39:39;;;;;;;1.17;0.77;;;18.90;40.30;;;;;;8428483;28;20071;-55
2024/02/05 07:43:40;;;;;;;0.60;0.60;;;18.80;40.50;;;;;;8428078;28;20071;-55
2024/02/05 07:47:41;;;;;;;1.13;0.52;;;18.80;40.20;;;;;;8428265;28;20039;-54
2024/02/05 07:51:46;;;;;;;0.70;0.70;;;18.80;39.90;;;;;;8428207;28;20295;-55
2024/02/05 07:55:47;;;;;;;0.60;0.60;;;18.90;39.60;;;;;;8427790;28;20036;-53
2024/02/05 07:59:48;;;;;;;0.75;0.70;;;18.90;39.50;;;;;;8427758;28;20039;-54
2024/02/05 08:03:53;;;;;;;0.82;0.82;;;19.00;39.30;;;;;;8427750;28;20036;-55
2024/02/05 08:07:53;;;;;;;0.80;0.80;;;19.00;39.30;;;;;;8428017;28;20420;-55
2024/02/05 08:11:54;;;;;;;1.27;1.15;;;19.00;39.20;;;;;;8427283;28;20443;-54
2024/02/05 08:15:55;;;;;;;0.60;0.60;;;19.00;39.10;;;;;;8427019;28;20043;-56
2024/02/05 08:19:55;;;;;;;0.70;0.70;;;19.00;39.10;;;;;;8427233;28;20036;-55
2024/02/05 08:23:56;;;;;;;0.70;0.70;;;19.00;39.40;;;;;;8427057;28;20054;-55
2024/02/05 08:27:59;;;;;;;0.68;0.68;;;18.90;40.40;;;;;;8426987;28;20024;-54
2024/02/05 08:32:00;;;;;;;0.65;0.55;;;18.80;40.40;;;;;;8426678;28;20036;-54
2024/02/05 08:36:01;;;;;;;0.65;0.65;;;18.80;40.10;;;;;;8426941;28;20115;-52
2024/02/05 08:40:03;;;;;;;1.05;0.70;;;18.90;39.90;;;;;;8426934;28;20036;-53
2024/02/05 08:44:04;;;;;;;0.70;0.70;;;18.90;39.60;;;;;;8426487;28;20044;-53
2024/02/05 08:48:06;;;;;;;0.90;0.70;;;18.90;39.40;;;;;;8426295;28;20066;-53
2024/02/05 08:52:06;;;;;;;0.60;0.60;;;19.00;39.30;;;;;;8426588;28;20089;-53
2024/02/05 08:56:08;;;;;;;0.60;0.60;;;19.00;39.10;;;;;;8426107;28;20024;-54
2024/02/05 09:00:10;;;;;;;;;;;19.00;39.00;;;;;;8426830;28;20036;-53
2024/02/05 09:04:11;;;;;;;0.50;0.50;;;19.00;39.50;;;;;;8426314;28;19959;-53
2024/02/05 09:08:12;;;;;;;0.60;0.60;;;19.00;38.90;;;;;;8426223;28;20036;-53
2024/02/05 09:12:12;;;;;;;0.85;0.43;;;19.00;39.50;;;;;;8425910;28;20056;-53
2024/02/05 09:16:13;;;;;;;0.70;0.60;;;18.90;40.30;;;;;;8408214;28;20084;-53
2024/02/05 09:20:14;;;;;;;0.50;0.50;;;18.80;40.30;;;;;;8426322;28;20070;-53
2024/02/05 09:24:14;;;;;;;0.57;0.50;;;18.90;40.00;;;;;;8407741;28;20040;-54
2024/02/05 09:28:15;;;;;;;1.02;0.95;;;18.90;39.70;;;;;;8411414;28;20031;-53
2024/02/05 09:32:16;;;;;;;0.63;0.63;;;18.90;39.50;;;;;;8432431;28;20118;-54
2024/02/05 09:36:18;;;;;;;0.60;0.60;;;18.90;39.20;;;;;;8414406;28;20036;-54
2024/02/05 09:40:19;;;;;;;0.50;0.50;;;19.00;39.20;;;;;;8432324;28;20119;-54
2024/02/05 09:44:20;;;;;;;0.93;0.80;;;19.00;39.00;;;;;;8431877;28;20047;-52
2024/02/05 09:48:20;;;;;;;;;;;19.00;39.00;;;;;;8432645;28;20032;-53
2024/02/05 09:52:24;;;;;;;0.60;0.60;;;19.10;38.90;;;;;;8431591;28;19909;-54
2024/02/05 09:56:27;;;;;;;0.75;0.60;;;19.10;38.80;;;;;;8413338;28;20040;-51
2024/02/05 10:00:28;;;;;;;0.50;0.47;;;19.00;39.50;;;;;;8431731;28;20116;-51
2024/02/05 10:04:29;;;;;;;0.45;0.45;;;18.90;40.30;;;;;;8431352;28;20478;-52
2024/02/05 10:08:33;;;;;;;0.65;0.65;;;18.80;40.20;;;;;;8431317;28;20024;-53
2024/02/05 10:12:37;;;;;;;0.57;0.57;;;18.90;39.80;;;;;;8412747;28;20148;-52
2024/02/05 10:16:42;;;;;;;0.50;0.50;;;18.90;39.50;;;;;;8431110;28;20529;-53
2024/02/05 10:20:43;;;;;;;0.52;0.50;;;19.00;39.40;;;;;;8430979;28;20028;-53
2024/02/05 10:24:45;;;;;;;0.50;0.50;;;19.00;39.20;;;;;;8430824;28;20048;-53
2024/02/05 10:28:45;;;;;;;0.73;0.60;;;19.00;39.10;;;;;;8430326;28;20077;-52
2024/02/05 10:32:46;;;;;;;0.82;0.70;;;19.00;39.00;;;;;;8430474;28;20082;-53
2024/02/05 10:36:47;;;;;;;0.70;0.70;;;19.00;38.90;;;;;;8412334;28;20035;-53
2024/02/05 10:40:51;;;;;;;0.73;0.73;;;19.10;38.80;;;;;;8430283;28;20306;-52
2024/02/05 10:44:52;;;;;;;0.55;0.55;;;19.00;38.80;;;;;;8429960;28;20063;-53
2024/02/05 10:48:53;;;;;;;2.53;0.70;;;19.00;39.60;;;;;;8429893;28;20040;-52
2024/02/05 10:52:54;;;;;;;0.40;0.40;;;18.90;40.20;;;;;;8430179;28;20040;-52
2024/02/05 10:56:56;;;;;;;0.55;0.55;;;18.80;40.10;;;;;;8429596;28;20064;-53
2024/02/05 11:01:00;;;;;;;0.52;0.52;;;18.90;39.70;;;;;;8430577;28;20253;-52
2024/02/05 11:05:02;;;;;;;0.40;0.40;;;18.90;39.50;;;;;;8429651;28;20025;-53
2024/02/05 11:09:06;;;;;;;0.65;0.60;;;18.90;39.30;;;;;;8429487;28;20032;-51
2024/02/05 11:13:11;;;;;;;0.50;0.50;;;18.90;39.10;;;;;;8428940;28;20056;-52
2024/02/05 11:17:16;;;;;;;0.47;0.47;;;19.00;39.00;;;;;;8429233;28;20533;-52
2024/02/05 11:21:44;;;;;;;0.55;0.50;;;19.00;38.90;;;;;;8428811;28;20028;-53
2024/02/05 11:25:47;;;;;;;0.90;0.70;;;19.00;38.80;;;;;;8428912;28;20028;-53
2024/02/05 11:29:50;;;;;;;0.50;0.50;;;19.00;38.80;;;;;;8428818;28;20028;-51
2024/02/05 11:34:11;;;;;;;0.75;0.63;;;19.00;38.60;;;;;;8428780;28;20099;-53
2024/02/05 11:38:12;;;;;;;0.50;0.50;;;18.90;39.80;;;;;;8428807;28;20596;-52
2024/02/05 11:42:17;;;;;;;0.60;0.52;;;18.80;40.30;;;;;;8428125;28;20503;-53
2024/02/05 11:46:18;;;;;;;0.30;0.30;;;18.80;40.00;;;;;;8428295;28;20549;-52
2024/02/05 11:50:20;;;;;;;0.55;0.50;;;18.80;39.60;;;;;;8427376;28;20028;-51
2024/02/05 11:54:21;;;;;;;0.57;0.50;;;18.90;39.30;;;;;;8428574;28;20051;-52
2024/02/05 11:58:22;;;;;;;;;;;18.90;39.10;;;;;;8428316;28;20032;-50
2024/02/05 12:02:22;;;;;;;0.60;0.60;;;18.90;39.00;;;;;;8428606;28;20357;-52
2024/02/05 12:06:24;;;;;;;0.60;0.50;;;19.00;38.90;;;;;;8427629;28;20036;-54
2024/02/05 12:10:25;;;;;;;0.40;0.40;;;19.00;38.80;;;;;;8427423;28;20383;-52
2024/02/05 12:14:35;;;;;;;0.60;0.50;;;19.00;38.70;;;;;;8427517;28;20439;-53
2024/02/05 12:18:36;;;;;;;0.63;0.60;;;19.00;38.60;;;;;;8427168;28;20548;-50
2024/02/05 12:22:37;;;;;;;0.50;0.50;;;19.00;38.80;;;;;;8427041;28;20426;-51
2024/02/05 12:26:38;;;;;;;0.50;0.50;;;18.90;39.90;;;;;;8426810;28;20028;-54
2024/02/05 12:30:38;;;;;;;0.57;0.57;;;18.80;40.30;;;;;;8427183;28;20038;-52
2024/02/05 12:34:39;;;;;;;0.57;0.52;;;18.80;39.90;;;;;;8408659;28;20032;-53
2024/02/05 12:38:40;;;;;;;0.40;0.40;;;18.80;39.60;;;;;;8426766;28;20050;-54
2024/02/05 12:42:42;;;;;;;0.68;0.50;;;18.80;39.40;;;;;;8426725;28;20044;-53
2024/02/05 12:46:43;;;;;;;0.77;0.43;;;18.90;39.20;;;;;;8426180;28;20107;-50
2024/02/05 12:50:44;;;;;;;0.30;0.30;;;18.90;39.00;;;;;;8426886;28;20028;-51
2024/02/05 12:54:45;;;;;;;0.75;0.70;;;18.90;38.80;;;;;;8426587;28;20032;-53
2024/02/05 12:58:46;;;;;;;0.43;0.43;;;19.00;38.80;;;;;;8426256;28;20085;-53
2024/02/05 13:02:47;;;;;;;0.60;0.60;;;19.00;38.70;;;;;;8425945;28;20034;-53
2024/02/05 13:06:48;;;;;;;0.80;0.50;;;19.00;38.60;;;;;;8426087;28;20024;-53
2024/02/05 13:10:49;;;;;;;0.47;0.47;;;18.90;38.90;;;;;;8426213;28;20062;-52
2024/02/05 13:14:49;;;;;;;0.50;0.50;;;18.80;39.90;;;;;;8426313;28;20643;-52
2024/02/05 13:18:50;;;;;;;0.40;0.40;;;18.80;40.20;;;;;;8426075;28;20500;-49
2024/02/05 13:22:51;;;;;;;0.45;0.45;;;18.80;39.80;;;;;;8425690;28;20524;-52
2024/02/05 13:26:54;;;;;;;0.50;0.50;;;18.80;39.40;;;;;;8425912;28;20103;-51
2024/02/05 13:30:54;;;;;;;0.40;0.40;;;18.90;39.20;;;;;;8425890;28;20493;-51
2024/02/05 13:34:55;;;;;;;0.50;0.50;;;18.90;39.00;;;;;;8426070;28;20389;-53
2024/02/05 13:38:56;;;;;;;0.40;0.40;;;18.90;38.90;;;;;;8425707;28;20485;-51
2024/02/05 13:42:57;;;;;;;0.40;0.40;;;18.90;38.70;;;;;;8425567;28;20024;-51
2024/02/05 13:46:57;;;;;;;0.60;0.60;;;19.00;38.70;;;;;;8425549;28;20034;-52
2024/02/05 13:51:00;;;;;;;0.60;0.40;;;19.00;38.60;;;;;;8425597;28;20757;-51
2024/02/05 13:55:00;;;;;;;0.50;0.50;;;19.00;38.50;;;;;;8425333;28;20165;-51
2024/02/05 13:59:02;;;;;;;0.50;0.50;;;19.00;39.00;;;;;;8425452;28;20036;-53
2024/02/05 14:03:03;;;;;;;0.50;0.50;;;18.80;39.90;;;;;;8425022;28;20040;-53
2024/02/05 14:07:04;;;;;;;0.60;0.60;;;18.80;40.10;;;;;;8425503;28;20105;-54
2024/02/05 14:11:05;;;;;;;0.85;0.50;;;18.80;39.60;;;;;;8425248;28;20138;-51
2024/02/05 14:15:06;;;;;;;0.60;0.35;;;18.90;39.40;;;;;;8429901;28;20435;-52
2024/02/05 14:19:07;;;;;;;0.43;0.40;;;18.90;39.10;;;;;;8431225;28;20055;-52
2024/02/05 14:23:07;;;;;;;0.40;0.30;;;18.90;39.00;;;;;;8430980;28;20043;-51
2024/02/05 14:27:08;;;;;;;0.50;0.40;;;18.90;39.00;;;;;;8430639;28;20127;-53
2024/02/05 14:31:09;;;;;;;0.30;0.30;;;18.90;38.70;;;;;;8430809;28;20165;-52
2024/02/05 14:35:09;;;;;;;0.30;0.30;;;19.00;38.70;;;;;;8430867;28;20051;-51
2024/02/05 14:39:11;;;;;;;0.30;0.30;;;19.00;38.60;;;;;;8430240;28;20494;-53
2024/02/05 14:43:12;;;;;;;0.43;0.43;;;19.00;38.50;;;;;;8430235;28;20488;-51
2024/02/05 14:47:13;;;;;;;0.45;0.45;;;18.90;39.20;;;;;;8429966;28;20393;-53
2024/02/05 14:51:14;;;;;;;0.60;0.60;;;18.80;39.90;;;;;;8430164;28;20038;-52
2024/02/05 14:55:15;;;;;;;0.40;0.40;;;18.80;40.00;;;;;;8430323;28;20040;-52
2024/02/05 14:59:15;;;;;;;0.43;0.43;;;18.80;39.60;;;;;;8430033;28;20031;-52
2024/02/05 15:03:16;;;;;;;0.77;0.50;;;18.80;39.30;;;;;;8429483;28;20133;-52
2024/02/05 15:07:17;;;;;;;0.82;0.50;;;18.90;39.10;;;;;;8429507;28;20394;-51
2024/02/05 15:11:17;;;;;;;0.40;0.40;;;18.90;38.90;;;;;;8429807;28;20052;-53
2024/02/05 15:15:18;;;;;;;0.50;0.50;;;18.90;38.80;;;;;;8429417;28;20405;-52
2024/02/05 15:19:19;;;;;;;0.63;0.40;;;18.90;38.70;;;;;;8429219;28;20387;-52
2024/02/05 15:23:19;;;;;;;0.45;0.45;;;18.90;38.60;;;;;;8428610;28;20039;-52
2024/02/05 15:27:20;;;;;;;0.40;0.40;;;19.00;38.50;;;;;;8428002;28;20040;-51
2024/02/05 15:31:21;;;;;;;0.40;0.40;;;19.00;38.40;;;;;;8428797;28;20020;-53
2024/02/05 15:35:23;;;;;;;0.40;0.40;;;18.90;39.20;;;;;;8428834;28;20036;-54
2024/02/05 15:39:24;;;;;;;1.00;0.47;;;18.80;39.90;;;;;;8428679;28;20097;-52
2024/02/05 15:43:25;;;;;;;0.43;0.43;;;18.80;39.90;;;;;;8428067;28;20111;-53
2024/02/05 15:47:26;;;;;;;;;;;18.80;39.60;;;;;;8428637;28;20038;-53
2024/02/05 15:51:27;;;;;;;0.50;0.50;;;18.90;39.30;;;;;;8410240;28;20349;-53
2024/02/05 15:55:27;;;;;;;0.40;0.30;;;18.90;39.00;;;;;;8427940;28;20066;-53
2024/02/05 15:59:28;;;;;;;0.55;0.45;;;18.90;38.80;;;;;;8427719;28;20028;-53
2024/02/05 16:03:29;;;;;;;0.57;0.50;;;18.90;38.70;;;;;;8427452;28;20042;-53
2024/02/05 16:07:30;;;;;;;0.43;0.43;;;19.00;38.60;;;;;;8427407;28;20032;-52
2024/02/05 16:11:31;;;;;;;0.40;0.40;;;19.00;38.60;;;;;;8427858;28;20125;-52
2024/02/05 16:15:32;;;;;;;0.30;0.30;;;19.00;38.50;;;;;;8427361;28;20032;-52
2024/02/05 16:19:33;;;;;;;0.38;0.32;;;19.00;38.40;;;;;;8427073;28;20036;-53
2024/02/05 16:23:33;;;;;;;0.40;0.40;;;18.90;39.20;;;;;;8427045;28;20119;-53
2024/02/05 16:27:34;;;;;;;0.40;0.40;;;18.80;39.90;;;;;;8426397;28;20286;-51
2024/02/05 16:31:35;;;;;;;0.50;0.50;;;18.80;39.80;;;;;;8426920;28;20562;-53
2024/02/05 16:35:37;;;;;;;0.40;0.40;;;18.80;39.50;;;;;;8426470;28;20428;-53
2024/02/05 16:39:37;;;;;;;0.30;0.30;;;18.90;39.20;;;;;;8426925;28;20028;-55
2024/02/05 16:43:39;;;;;;;0.80;0.40;;;18.90;39.00;;;;;;8408816;28;20168;-54
2024/02/05 16:47:39;;;;;;;0.40;0.40;;;18.90;38.90;;;;;;8426282;28;20024;-54
2024/02/05 16:51:40;;;;;;;0.50;0.40;;;19.00;38.80;;;;;;8426436;28;20043;-54
2024/02/05 16:55:41;;;;;;;0.50;0.50;;;18.90;38.60;;;;;;8426445;28;20990;-54
2024/02/05 16:59:41;;;;;;;0.88;0.50;;;18.90;38.50;;;;;;8392980;28;20029;-52
2024/02/05 17:03:42;;;;;;;0.40;0.40;;;19.00;38.40;;;;;;8392566;28;20064;-54
2024/02/05 17:07:44;;;;;;;0.30;0.30;;;19.00;38.30;;;;;;8392739;28;20025;-53
2024/02/05 17:11:45;;;;;;;0.52;0.30;;;18.90;39.30;;;;;;8392398;28;20055;-53
2024/02/05 17:15:48;;;;;;;0.70;0.70;;;18.80;39.90;;;;;;8392682;28;20028;-54
2024/02/05 17:19:48;;;;;;;0.47;0.47;;;18.80;39.80;;;;;;8392474;28;20017;-54
2024/02/05 17:23:49;;;;;;;0.40;0.40;;;18.80;39.40;;;;;;8392322;28;20075;-55
2024/02/05 17:27:50;;;;;;;0.47;0.40;;;18.80;39.20;;;;;;8410301;28;20289;-54
2024/02/05 17:31:51;;;;;;;0.45;0.45;;;18.90;38.90;;;;;;8425862;28;20638;-54
2024/02/05 17:35:51;;;;;;;0.50;0.40;;;18.90;38.80;;;;;;8425834;28;20028;-53
2024/02/05 17:39:52;;;;;;;0.40;0.40;;;18.90;38.70;;;;;;8425803;28;20035;-54
2024/02/05 17:43:53;;;;;;;0.57;0.50;;;18.90;38.60;;;;;;8407180;28;20238;-54
2024/02/05 17:47:54;;;;;;;0.65;0.40;;;18.90;38.50;;;;;;8409232;28;20032;-54
2024/02/05 17:51:54;;;;;;;0.38;0.35;;;18.90;38.40;;;;;;8432178;28;20036;-54
2024/02/05 17:55:56;;;;;;;0.40;0.40;;;19.00;38.40;;;;;;8431144;28;20074;-54
2024/02/05 17:59:57;;;;;;;0.50;0.50;;;18.90;39.30;;;;;;8432096;28;20031;-54
2024/02/05 18:03:58;;;;;;;0.50;0.40;;;18.80;39.90;;;;;;8413479;28;20032;-55
2024/02/05 18:07:58;;;;;;;0.30;0.30;;;18.80;39.60;;;;;;8422992;28;20028;-55
2024/02/05 18:11:59;;;;;;;0.70;0.57;;;18.80;39.30;;;;;;8422607;28;20067;-54
2024/02/05 18:15:59;;;;;;;0.40;0.40;;;18.90;39.00;;;;;;8431358;28;20106;-54
2024/02/05 18:20:03;;;;;;;0.52;0.40;;;18.90;38.80;;;;;;8431500;28;20088;-55
2024/02/05 18:24:05;;;;;;;0.40;0.40;;;18.90;38.70;;;;;;8431002;28;20040;-54
2024/02/05 18:28:05;;;;;;;;;;;18.90;38.50;;;;;;8431030;28;20067;-53
2024/02/05 18:32:06;;;;;;;0.63;0.50;;;19.00;38.40;;;;;;8431142;28;20360;-54
2024/02/05 18:36:07;;;;;;;0.50;0.50;;;19.00;38.30;;;;;;8430603;28;20091;-55
2024/02/05 18:40:10;;;;;;;0.50;0.40;;;19.00;38.30;;;;;;8430608;28;20032;-54
2024/02/05 18:44:10;;;;;;;0.45;0.40;;;19.00;38.20;;;;;;8412562;28;20032;-54
2024/02/05 18:48:11;;;;;;;0.67;0.67;;;18.90;39.30;;;;;;8430062;28;20035;-54
2024/02/05 18:52:12;;;;;;;0.40;0.40;;;18.80;39.70;;;;;;8429990;28;20739;-53
2024/02/05 18:56:12;;;;;;;0.73;0.47;;;18.80;39.50;;;;;;8429849;28;20032;-53
2024/02/05 19:00:13;;;;;;;0.50;0.40;;;18.80;39.10;;;;;;8429555;28;20036;-53
2024/02/05 19:04:14;;;;;;;0.50;0.45;;;18.90;38.90;;;;;;8429585;28;20493;-53
2024/02/05 19:08:15;;;;;;;0.50;0.50;;;18.90;38.70;;;;;;8429621;28;20053;-52
2024/02/05 19:12:16;;;;;;;0.40;0.40;;;18.90;38.60;;;;;;8429523;28;20106;-52
2024/02/05 19:16:16;;;;;;;1.38;0.50;;;18.90;38.50;;;;;;8429494;28;20051;-51
2024/02/05 19:20:17;;;;;;;1.88;0.52;;;19.00;38.40;;;;;;8429620;28;20036;-51
2024/02/05 19:24:18;;;;;;;0.60;0.60;;;19.00;38.30;;;;;;8428880;28;20077;-52
2024/02/05 19:28:19;;;;;;;4.88;1.83;;;19.00;38.40;;;;;;8428634;28;20115;-53
2024/02/05 19:32:19;;;;;;;5.15;3.15;;;18.80;38.90;;;;;;8428549;28;20028;-48
2024/02/05 19:36:20;;;;;;;5.63;2.88;;;18.40;39.80;;;;;;8428481;28;20063;-51
2024/02/05 19:40:26;;;;;;;3.95;2.85;;;18.40;40.00;;;;;;8426667;28;20112;-55
2024/02/05 19:44:27;;;;;;;11.45;2.83;;;18.60;40.60;;;;;;8434449;28;20123;-54
2024/02/05 19:48:28;;;;;;;3.40;2.28;;;18.70;41.80;;;;;;8432304;28;20081;-50
2024/02/05 19:52:28;;;;;;;6.28;2.28;;;18.80;41.30;;;;;;8433400;28;20077;-53
2024/02/05 19:56:29;;;;;;;8.80;2.83;;;18.80;41.30;;;;;;8423351;28;20118;-52
2024/02/05 20:00:30;;;;;;;10.10;3.67;;;18.90;41.10;;;;;;8426837;28;20322;-54
2024/02/05 20:04:31;;;;;;;6.43;1.83;;;18.90;41.30;;;;;;8423418;28;20084;-50
2024/02/05 20:08:32;;;;;;;6.13;2.40;;;18.90;40.90;;;;;;8429881;28;20024;-55
2024/02/05 20:12:33;;;;;;;4.82;2.47;;;18.90;41.20;;;;;;8410609;28;20048;-54
2024/02/05 20:16:35;;;;;;;7.07;2.55;;;18.90;41.10;;;;;;8403283;28;20052;-51
2024/02/05 20:20:35;;;;;;;8.18;2.13;;;18.90;41.30;;;;;;8398049;28;20039;-56
2024/02/05 20:24:36;;;;;;;7.07;2.13;;;19.00;41.00;;;;;;8400028;28;20036;-55
2024/02/05 20:28:37;;;;;;;2.80;1.50;;;19.00;40.90;;;;;;8401108;28;20294;-51
2024/02/05 20:32:38;;;;;;;10.50;2.60;;;19.00;41.00;;;;;;8403452;28;20032;-54
2024/02/05 20:36:38;;;;;;;5.70;2.13;;;19.10;41.70;;;;;;8399052;28;20029;-54
2024/02/05 20:40:39;;;;;;;13.77;2.38;;;19.10;43.80;;;;;;8398769;28;20032;-50
2024/02/05 20:44:41;;;;;;;6.80;2.60;;;19.10;43.10;;;;;;8401065;28;20032;-54
2024/02/05 20:48:42;;;;;;;6.60;2.05;;;19.20;43.00;;;;;;8400131;28;20040;-55
2024/02/05 20:52:43;;;;;;;4.15;2.13;;;19.20;42.90;;;;;;8401588;28;20084;-54
2024/02/05 20:56:43;;;;;;;12.27;2.50;;;19.20;42.80;;;;;;8401386;28;20032;-52